createdAt,value
2018-11-05T00:01:19.090Z,8.33
2018-11-05T00:03:47.080Z,8.28
2018-11-05T00:06:15.036Z,8.26
2018-11-05T00:08:43.037Z,8.19
2018-11-05T00:11:12.765Z,8.14
2018-11-05T00:13:40.782Z,8.05
2018-11-05T00:16:09.312Z,8.00
2018-11-05T00:18:37.306Z,7.97
2018-11-05T00:21:05.268Z,7.93
2018-11-05T00:23:33.287Z,7.86
2018-11-05T00:26:02.232Z,7.83
2018-11-05T00:28:30.411Z,7.81
2018-11-05T00:30:58.375Z,7.79
2018-11-05T00:33:26.351Z,7.79
2018-11-05T00:35:54.289Z,7.74
2018-11-05T00:38:22.372Z,7.74
2018-11-05T00:40:50.330Z,7.69
2018-11-05T00:43:18.296Z,7.65
2018-11-05T00:45:46.260Z,7.58
2018-11-05T00:48:14.344Z,7.58
2018-11-05T00:50:42.335Z,7.55
2018-11-05T00:53:10.350Z,7.48
2018-11-05T00:55:38.676Z,7.49
2018-11-05T00:58:06.685Z,7.48
2018-11-05T01:00:34.637Z,7.44
2018-11-05T01:03:02.648Z,7.53
2018-11-05T01:05:30.644Z,7.51
2018-11-05T01:07:58.754Z,7.54
2018-11-05T01:10:26.794Z,7.52
2018-11-05T01:12:55.022Z,7.52
2018-11-05T01:15:23.061Z,7.52
2018-11-05T01:17:51.081Z,7.56
2018-11-05T01:20:19.055Z,7.59
2018-11-05T01:22:46.992Z,7.62
2018-11-05T01:25:15.019Z,7.62
2018-11-05T01:27:42.975Z,7.75
2018-11-05T01:30:12.648Z,7.78
2018-11-05T01:32:40.889Z,7.77
2018-11-05T01:35:10.535Z,7.83
2018-11-05T01:37:38.680Z,7.95
2018-11-05T01:40:08.798Z,7.91
2018-11-05T01:42:37.089Z,8.00
2018-11-05T01:45:06.176Z,8.06
2018-11-05T01:47:34.180Z,8.12
2018-11-05T01:50:02.372Z,8.13
2018-11-05T01:52:30.308Z,8.23
2018-11-05T01:54:58.348Z,8.20
2018-11-05T01:57:26.336Z,8.34
2018-11-05T01:59:54.328Z,8.37
2018-11-05T02:02:22.308Z,8.40
2018-11-05T02:04:50.314Z,8.41
2018-11-05T02:07:18.298Z,8.50
2018-11-05T02:09:46.277Z,8.42
2018-11-05T02:12:14.248Z,8.46
2018-11-05T02:14:42.273Z,8.46
2018-11-05T02:17:10.246Z,8.51
2018-11-05T02:19:38.400Z,8.50
2018-11-05T02:22:06.432Z,8.49
2018-11-05T02:24:34.438Z,8.50
2018-11-05T02:27:02.461Z,8.48
2018-11-05T02:29:30.556Z,8.51
2018-11-05T02:31:58.593Z,8.50
2018-11-05T02:34:26.631Z,8.59
2018-11-05T02:36:54.631Z,8.58
2018-11-05T02:39:22.754Z,8.60
2018-11-05T02:41:50.715Z,8.69
2018-11-05T02:44:18.747Z,8.68
2018-11-05T02:46:46.825Z,8.78
2018-11-05T02:49:14.900Z,8.79
2018-11-05T02:51:42.925Z,8.86
2018-11-05T02:54:10.957Z,8.81
2018-11-05T02:56:39.004Z,8.81
2018-11-05T02:59:07.169Z,8.84
2018-11-05T03:01:35.184Z,8.83
2018-11-05T03:04:03.224Z,8.88
2018-11-05T03:06:31.361Z,8.96
2018-11-05T03:08:59.274Z,8.98
2018-11-05T03:11:27.404Z,8.91
2018-11-05T03:13:55.376Z,8.91
2018-11-05T03:16:23.346Z,8.93
2018-11-05T03:18:51.330Z,8.96
2018-11-05T03:21:19.316Z,8.93
2018-11-05T03:23:47.321Z,8.91
2018-11-05T03:26:15.371Z,8.89
2018-11-05T03:28:43.354Z,8.91
2018-11-05T03:31:11.322Z,8.97
2018-11-05T03:33:39.284Z,8.97
2018-11-05T03:36:07.405Z,8.98
2018-11-05T03:38:35.389Z,8.95
2018-11-05T03:41:03.414Z,8.97
2018-11-05T03:43:31.570Z,8.97
2018-11-05T03:45:59.606Z,9.01
2018-11-05T03:48:27.505Z,9.00
2018-11-05T03:50:55.515Z,8.98
2018-11-05T03:53:23.435Z,8.99
2018-11-05T03:55:51.544Z,8.98
2018-11-05T03:58:19.524Z,8.98
2018-11-05T04:00:47.637Z,9.00
2018-11-05T04:03:15.604Z,9.00
2018-11-05T04:05:43.974Z,9.01
2018-11-05T04:08:11.930Z,9.05
2018-11-05T04:10:39.947Z,9.08
2018-11-05T04:13:07.896Z,9.05
2018-11-05T04:15:36.123Z,9.05
2018-11-05T04:18:04.015Z,9.08
2018-11-05T04:20:32.055Z,9.06
2018-11-05T04:23:00.075Z,9.10
2018-11-05T04:25:28.079Z,9.13
2018-11-05T04:27:56.131Z,9.10
2018-11-05T04:30:24.119Z,9.13
2018-11-05T04:32:52.139Z,9.10
2018-11-05T04:35:20.164Z,9.10
2018-11-05T04:37:48.564Z,9.13
2018-11-05T04:40:16.574Z,9.16
2018-11-05T04:42:44.667Z,9.14
2018-11-05T04:45:13.329Z,9.11
2018-11-05T04:47:41.988Z,9.11
2018-11-05T04:50:11.144Z,9.11
2018-11-05T04:52:40.035Z,9.20
2018-11-05T04:55:08.050Z,9.21
2018-11-05T04:57:36.129Z,9.21
2018-11-05T05:00:10.056Z,9.19
2018-11-05T05:02:39.110Z,9.18
2018-11-05T05:05:07.513Z,9.16
2018-11-05T05:07:35.597Z,9.18
2018-11-05T05:10:03.837Z,9.18
2018-11-05T05:12:31.840Z,9.22
2018-11-05T05:14:59.916Z,9.19
2018-11-05T05:17:27.998Z,9.20
2018-11-05T05:19:55.997Z,9.22
2018-11-05T05:22:24.058Z,9.24
2018-11-05T05:24:52.096Z,9.22
2018-11-05T05:27:20.137Z,9.22
2018-11-05T05:29:48.390Z,9.21
2018-11-05T05:32:16.403Z,9.19
2018-11-05T05:34:44.396Z,9.21
2018-11-05T05:37:12.860Z,9.18
2018-11-05T05:39:41.012Z,9.21
2018-11-05T05:42:09.552Z,9.19
2018-11-05T05:44:37.652Z,9.24
2018-11-05T05:47:06.005Z,9.22
2018-11-05T05:49:34.477Z,9.22
2018-11-05T05:52:02.732Z,9.22
2018-11-05T05:54:31.005Z,9.19
2018-11-05T05:56:59.272Z,9.18
2018-11-05T05:59:27.452Z,9.22
2018-11-05T06:01:55.744Z,9.25
2018-11-05T06:04:23.924Z,9.27
2018-11-05T06:06:52.114Z,9.23
2018-11-05T06:09:20.414Z,9.22
2018-11-05T06:11:48.614Z,9.27
2018-11-05T06:14:16.927Z,9.27
2018-11-05T06:16:45.126Z,9.33
2018-11-05T06:19:13.485Z,9.34
2018-11-05T06:21:41.829Z,9.32
2018-11-05T06:24:10.146Z,9.33
2018-11-05T06:26:38.326Z,9.30
2018-11-05T06:29:06.781Z,9.27
2018-11-05T06:31:35.086Z,9.27
2018-11-05T06:34:03.545Z,9.23
2018-11-05T06:36:31.879Z,9.27
2018-11-05T06:39:00.216Z,9.30
2018-11-05T06:41:28.533Z,9.32
2018-11-05T06:43:56.795Z,9.34
2018-11-05T06:46:25.061Z,9.33
2018-11-05T06:48:53.405Z,9.36
2018-11-05T06:51:21.761Z,9.41
2018-11-05T06:53:50.122Z,9.40
2018-11-05T06:56:18.280Z,9.42
2018-11-05T06:58:46.521Z,9.47
2018-11-05T07:01:14.711Z,9.52
2018-11-05T07:03:42.972Z,9.55
2018-11-05T07:06:11.111Z,9.59
2018-11-05T07:08:39.459Z,9.62
2018-11-05T07:11:07.658Z,9.64
2018-11-05T07:13:35.860Z,9.64
2018-11-05T07:16:04.119Z,9.67
2018-11-05T07:18:32.546Z,9.72
2018-11-05T07:21:00.693Z,9.72
2018-11-05T07:23:28.953Z,9.71
2018-11-05T07:25:57.175Z,9.75
2018-11-05T07:28:25.546Z,9.76
2018-11-05T07:30:53.794Z,9.78
2018-11-05T07:33:22.204Z,9.81
2018-11-05T07:35:50.354Z,9.79
2018-11-05T07:38:18.650Z,9.79
2018-11-05T07:40:46.770Z,9.81
2018-11-05T07:43:14.998Z,9.83
2018-11-05T07:45:43.258Z,9.84
2018-11-05T07:48:11.490Z,9.89
2018-11-05T07:50:39.688Z,9.92
2018-11-05T07:53:07.870Z,9.92
2018-11-05T07:55:36.058Z,9.95
2018-11-05T07:58:04.258Z,10.04
2018-11-05T08:00:37.940Z,10.03
2018-11-05T08:03:06.412Z,10.03
2018-11-05T08:05:34.653Z,10.02
2018-11-05T08:08:02.913Z,10.04
2018-11-05T08:10:31.196Z,10.03
2018-11-05T08:12:59.493Z,10.07
2018-11-05T08:15:27.913Z,10.11
2018-11-05T08:17:56.041Z,10.22
2018-11-05T08:20:24.315Z,10.24
2018-11-05T08:22:52.457Z,10.27
2018-11-05T08:25:20.693Z,10.39
2018-11-05T08:27:48.933Z,10.44
2018-11-05T08:30:22.914Z,10.44
2018-11-05T08:32:51.141Z,10.46
2018-11-05T08:35:19.361Z,10.55
2018-11-05T08:37:47.963Z,10.46
2018-11-05T08:40:19.168Z,10.42
2018-11-05T08:42:48.324Z,10.44
2018-11-05T08:45:17.758Z,10.43
2018-11-05T08:47:46.178Z,10.41
2018-11-05T08:50:15.568Z,10.42
2018-11-05T08:52:43.839Z,10.41
2018-11-05T08:55:14.410Z,10.45
2018-11-05T08:57:42.982Z,10.45
2018-11-05T09:00:20.458Z,10.49
2018-11-05T09:02:48.900Z,10.48
2018-11-05T09:05:17.200Z,10.53
2018-11-05T09:07:46.122Z,10.57
2018-11-05T09:10:14.649Z,10.61
2018-11-05T09:12:43.119Z,10.62
2018-11-05T09:15:13.800Z,10.63
2018-11-05T09:17:42.939Z,10.65
2018-11-05T09:20:12.382Z,10.63
2018-11-05T09:22:40.639Z,10.77
2018-11-05T09:25:10.379Z,10.75
2018-11-05T09:27:38.596Z,10.78
2018-11-05T09:30:10.199Z,10.77
2018-11-05T09:32:38.319Z,10.82
2018-11-05T09:35:06.780Z,10.85
2018-11-05T09:37:35.080Z,10.87
2018-11-05T09:40:03.339Z,10.92
2018-11-05T09:42:31.583Z,11.08
2018-11-05T09:44:59.899Z,11.11
2018-11-05T09:47:34.820Z,11.14
2018-11-05T09:50:03.119Z,11.02
2018-11-05T09:52:31.479Z,11.09
2018-11-05T09:54:59.658Z,11.11
2018-11-05T09:57:28.031Z,11.07
2018-11-05T09:59:56.191Z,11.17
2018-11-05T10:02:27.239Z,11.24
2018-11-05T10:04:55.679Z,11.27
2018-11-05T10:07:23.619Z,11.25
2018-11-05T10:09:51.871Z,11.25
2018-11-05T10:12:20.239Z,11.16
2018-11-05T10:14:48.380Z,11.24
2018-11-05T10:17:16.707Z,11.22
2018-11-05T10:19:44.859Z,11.31
2018-11-05T10:22:13.059Z,11.39
2018-11-05T10:24:41.280Z,11.41
2018-11-05T10:27:09.530Z,11.48
2018-11-05T10:29:37.819Z,11.48
2018-11-05T10:32:06.088Z,11.48
2018-11-05T10:34:34.283Z,11.51
2018-11-05T10:37:02.480Z,11.46
2018-11-05T10:39:30.679Z,11.49
2018-11-05T10:41:58.818Z,11.49
2018-11-05T10:44:27.019Z,11.59
2018-11-05T10:46:55.159Z,11.58
2018-11-05T10:49:23.387Z,11.66
2018-11-05T10:51:51.832Z,11.75
2018-11-05T10:54:19.959Z,11.81
2018-11-05T10:56:48.216Z,11.92
2018-11-05T10:59:16.458Z,11.91
2018-11-05T11:01:50.202Z,11.96
2018-11-05T11:04:23.765Z,11.89
2018-11-05T11:06:51.999Z,11.81
2018-11-05T11:09:20.139Z,11.90
2018-11-05T11:11:48.439Z,11.90
2018-11-05T11:14:16.638Z,11.92
2018-11-05T11:16:44.960Z,12.02
2018-11-05T11:19:13.050Z,12.07
2018-11-05T11:21:41.279Z,11.94
2018-11-05T11:24:09.606Z,11.90
2018-11-05T11:26:38.230Z,11.94
2018-11-05T11:29:06.555Z,12.11
2018-11-05T11:31:34.859Z,12.02
2018-11-05T11:34:03.138Z,12.21
2018-11-05T11:36:31.396Z,12.11
2018-11-05T11:38:59.718Z,12.10
2018-11-05T11:41:27.870Z,11.99
2018-11-05T11:43:56.132Z,11.99
2018-11-05T11:46:24.367Z,12.04
2018-11-05T11:48:52.598Z,12.03
2018-11-05T11:51:20.819Z,12.12
2018-11-05T11:53:49.046Z,12.17
2018-11-05T11:56:17.338Z,12.12
2018-11-05T11:58:45.416Z,12.15
2018-11-05T12:01:13.682Z,12.12
2018-11-05T12:03:41.731Z,12.21
2018-11-05T12:06:09.957Z,12.21
2018-11-05T12:08:38.267Z,12.26
2018-11-05T12:11:06.501Z,12.18
2018-11-05T12:13:34.675Z,12.27
2018-11-05T12:16:02.950Z,12.28
2018-11-05T12:18:31.250Z,12.24
2018-11-05T12:20:59.506Z,12.25
2018-11-05T12:23:27.758Z,12.25
2018-11-05T12:25:56.078Z,12.28
2018-11-05T12:28:24.358Z,12.30
2018-11-05T12:30:52.663Z,12.33
2018-11-05T12:33:20.838Z,12.33
2018-11-05T12:35:49.167Z,12.34
2018-11-05T12:38:17.438Z,12.38
2018-11-05T12:40:45.738Z,12.41
2018-11-05T12:43:13.927Z,12.51
2018-11-05T12:45:42.178Z,12.63
2018-11-05T12:48:10.359Z,12.65
2018-11-05T12:50:38.671Z,12.59
2018-11-05T12:53:06.878Z,12.70
2018-11-05T12:55:35.093Z,12.80
2018-11-05T12:58:03.338Z,12.91
2018-11-05T13:00:31.819Z,12.86
2018-11-05T13:03:01.001Z,12.79
2018-11-05T13:05:30.758Z,12.86
2018-11-05T13:07:59.038Z,12.87
2018-11-05T13:10:27.246Z,12.93
2018-11-05T13:12:55.587Z,13.05
2018-11-05T13:15:23.852Z,12.86
2018-11-05T13:17:52.167Z,12.82
2018-11-05T13:20:21.450Z,12.78
2018-11-05T13:22:49.738Z,12.75
2018-11-05T13:25:17.871Z,12.71
2018-11-05T13:27:47.358Z,12.69
2018-11-05T13:30:15.910Z,12.69
2018-11-05T13:32:44.543Z,12.71
2018-11-05T13:35:14.058Z,12.71
2018-11-05T13:37:42.935Z,12.70
2018-11-05T13:40:13.178Z,12.69
2018-11-05T13:42:41.438Z,12.71
2018-11-05T13:45:11.035Z,12.71
2018-11-05T13:47:40.092Z,12.72
2018-11-05T13:50:08.348Z,12.71
2018-11-05T13:52:36.854Z,12.69
2018-11-05T13:55:05.413Z,12.73
2018-11-05T13:57:33.739Z,12.75
2018-11-05T14:00:02.150Z,12.76
2018-11-05T14:02:30.583Z,12.75
2018-11-05T14:04:58.858Z,12.75
2018-11-05T14:07:28.047Z,12.80
2018-11-05T14:09:56.265Z,12.78
2018-11-05T14:12:24.619Z,12.79
2018-11-05T14:14:52.929Z,12.81
2018-11-05T14:17:21.198Z,12.86
2018-11-05T14:19:49.578Z,12.83
2018-11-05T14:22:17.826Z,12.78
2018-11-05T14:24:46.058Z,12.78
2018-11-05T14:27:14.454Z,12.81
2018-11-05T14:29:43.080Z,12.81
2018-11-05T14:32:10.858Z,12.79
2018-11-05T14:34:38.979Z,12.74
2018-11-05T14:37:07.480Z,12.69
2018-11-05T14:39:35.718Z,12.70
2018-11-05T14:42:03.926Z,12.67
2018-11-05T14:44:32.087Z,12.68
2018-11-05T14:47:00.269Z,12.67
2018-11-05T14:49:28.458Z,12.62
2018-11-05T14:51:56.619Z,12.54
2018-11-05T14:54:27.159Z,12.51
2018-11-05T14:56:56.475Z,12.51
2018-11-05T14:59:24.810Z,12.48
2018-11-05T15:02:56.907Z,12.39
2018-11-05T15:05:25.071Z,12.43
2018-11-05T15:07:53.360Z,12.44
2018-11-05T15:10:22.883Z,12.42
2018-11-05T15:12:51.318Z,12.40
2018-11-05T15:15:19.987Z,12.36
2018-11-05T15:17:48.559Z,12.33
2018-11-05T15:20:18.878Z,12.27
2018-11-05T15:22:47.261Z,12.21
2018-11-05T15:25:15.918Z,12.19
2018-11-05T15:27:44.158Z,12.13
2018-11-05T15:30:16.088Z,12.09
2018-11-05T15:32:44.523Z,12.03
2018-11-05T15:35:12.819Z,12.00
2018-11-05T15:37:41.771Z,11.94
2018-11-05T15:40:11.759Z,11.94
2018-11-05T15:42:40.119Z,11.83
2018-11-05T15:45:10.319Z,11.67
2018-11-05T15:47:39.083Z,11.60
2018-11-05T15:50:09.318Z,11.69
2018-11-05T15:52:37.721Z,11.67
2018-11-05T15:55:06.039Z,11.65
2018-11-05T15:57:34.818Z,11.63
2018-11-05T16:00:03.219Z,11.55
2018-11-05T16:02:31.411Z,11.42
2018-11-05T16:04:59.693Z,11.33
2018-11-05T16:07:27.999Z,11.21
2018-11-05T16:09:56.371Z,11.10
2018-11-05T16:12:24.451Z,11.01
2018-11-05T16:14:52.744Z,10.79
2018-11-05T16:17:21.039Z,10.73
2018-11-05T16:19:49.441Z,10.65
2018-11-05T16:22:17.619Z,10.59
2018-11-05T16:24:45.927Z,10.55
2018-11-05T16:27:14.128Z,10.49
2018-11-05T16:29:42.667Z,10.46
2018-11-05T16:32:13.529Z,10.42
2018-11-05T16:34:42.057Z,10.38
2018-11-05T16:37:10.431Z,10.30
2018-11-05T16:39:40.064Z,10.36
2018-11-05T16:42:08.448Z,10.28
2018-11-05T16:44:38.611Z,10.21
2018-11-05T16:47:07.051Z,10.20
2018-11-05T16:49:35.438Z,10.22
2018-11-05T16:52:03.830Z,10.11
2018-11-05T16:54:37.870Z,10.00
2018-11-05T16:57:13.602Z,9.94
2018-11-05T16:59:43.127Z,9.92
2018-11-05T17:02:13.508Z,9.87
2018-11-05T17:04:43.210Z,9.87
2018-11-05T17:07:12.316Z,9.86
2018-11-05T17:09:40.870Z,9.84
2018-11-05T17:12:09.317Z,9.81
2018-11-05T17:14:37.990Z,9.77
2018-11-05T17:17:06.492Z,9.70
2018-11-05T17:19:34.871Z,9.65
2018-11-05T17:22:03.450Z,9.61
2018-11-05T17:24:32.498Z,9.40
2018-11-05T17:27:00.854Z,9.30
2018-11-05T17:29:29.263Z,9.27
2018-11-05T17:31:57.965Z,9.22
2018-11-05T17:34:26.486Z,9.21
2018-11-05T17:36:54.597Z,9.10
2018-11-05T17:39:22.639Z,8.98
2018-11-05T17:41:50.739Z,9.01
2018-11-05T17:44:18.835Z,8.95
2018-11-05T17:46:46.962Z,8.96
2018-11-05T17:49:14.972Z,8.91
2018-11-05T17:51:43.053Z,8.84
2018-11-05T17:54:11.067Z,8.76
2018-11-05T17:56:39.240Z,8.71
2018-11-05T17:59:07.255Z,8.67
2018-11-05T18:01:35.316Z,8.63
2018-11-05T18:04:03.459Z,8.59
2018-11-05T18:06:31.972Z,8.53
2018-11-05T18:09:00.257Z,8.49
2018-11-05T18:11:28.248Z,8.46
2018-11-05T18:13:56.339Z,8.35
2018-11-05T18:16:24.375Z,8.36
2018-11-05T18:18:52.457Z,8.33
2018-11-05T18:21:20.486Z,8.32
2018-11-05T18:23:48.539Z,8.28
2018-11-05T18:26:16.495Z,8.25
2018-11-05T18:28:44.660Z,8.21
2018-11-05T18:31:12.840Z,8.24
2018-11-05T18:33:40.848Z,8.23
2018-11-05T18:36:08.920Z,8.18
2018-11-05T18:38:37.044Z,7.92
2018-11-05T18:41:05.506Z,7.86
2018-11-05T18:43:33.665Z,7.87
2018-11-05T18:46:01.695Z,7.86
2018-11-05T18:48:30.109Z,7.85
2018-11-05T18:50:58.186Z,7.80
2018-11-05T18:53:26.413Z,7.71
2018-11-05T18:55:54.477Z,7.64
2018-11-05T18:58:22.565Z,7.80
2018-11-05T19:00:50.665Z,7.77
2018-11-05T19:03:18.869Z,7.71
2018-11-05T19:05:47.233Z,7.64
2018-11-05T19:08:15.461Z,7.62
2018-11-05T19:10:43.700Z,7.61
2018-11-05T19:13:12.010Z,7.73
2018-11-05T19:15:41.003Z,7.75
2018-11-05T19:18:12.571Z,7.71
2018-11-05T19:20:43.439Z,7.87
2018-11-05T19:25:52.109Z,7.57
2018-11-05T19:28:23.047Z,7.70
2018-11-05T19:30:56.949Z,7.68
2018-11-05T19:33:29.731Z,7.66
2018-11-05T19:36:08.990Z,7.47
2018-11-05T19:38:44.227Z,7.30
2018-11-05T19:41:21.075Z,7.33
2018-11-05T19:43:59.062Z,7.29
2018-11-05T19:46:30.404Z,7.38
2018-11-05T19:48:59.273Z,7.46
2018-11-05T19:51:30.850Z,7.43
2018-11-05T19:57:32.264Z,7.63
2018-11-05T20:00:14.220Z,7.85
2018-11-05T20:02:44.841Z,7.84
2018-11-05T20:05:17.170Z,7.90
2018-11-05T20:07:50.146Z,7.86
2018-11-05T20:10:22.493Z,7.88
2018-11-05T20:12:57.145Z,7.91
2018-11-05T20:15:30.606Z,7.92
2018-11-05T20:18:06.820Z,7.82
2018-11-05T20:20:45.455Z,7.97
2018-11-05T20:23:18.178Z,8.07
2018-11-05T20:25:59.710Z,7.93
2018-11-05T20:28:32.382Z,7.84
2018-11-05T20:31:04.972Z,7.74
2018-11-05T20:33:39.036Z,7.73
2018-11-05T20:36:12.013Z,7.66
2018-11-05T20:38:49.528Z,7.69
2018-11-05T20:41:23.188Z,7.68
2018-11-05T20:43:56.435Z,7.71
2018-11-05T20:46:27.370Z,7.56
2018-11-05T20:49:00.359Z,7.51
2018-11-05T20:51:33.445Z,7.46
2018-11-05T20:54:07.387Z,7.48
2018-11-05T20:56:37.887Z,7.40
2018-11-05T20:59:06.017Z,7.30
2018-11-05T21:01:35.225Z,7.30
2018-11-05T21:04:03.685Z,7.21
2018-11-05T21:06:31.734Z,7.32
2018-11-05T21:08:59.741Z,7.33
2018-11-05T21:11:28.135Z,7.27
2018-11-05T21:13:56.105Z,7.28
2018-11-05T21:16:24.230Z,7.36
2018-11-05T21:18:53.243Z,7.30
2018-11-05T21:21:21.378Z,7.21
2018-11-05T21:23:50.670Z,7.10
2018-11-05T21:26:19.053Z,6.91
2018-11-05T21:28:47.072Z,6.95
2018-11-05T21:31:15.160Z,7.06
2018-11-05T21:33:43.805Z,7.03
2018-11-05T21:36:11.845Z,7.14
2018-11-05T21:38:39.872Z,7.08
2018-11-05T21:41:07.983Z,7.05
2018-11-05T21:43:35.985Z,7.24
2018-11-05T21:46:04.157Z,7.17
2018-11-05T21:48:32.273Z,7.07
2018-11-05T21:51:00.611Z,6.92
2018-11-05T21:53:28.747Z,7.00
2018-11-05T21:55:57.034Z,7.01
2018-11-05T21:58:25.029Z,6.97
2018-11-05T22:00:53.113Z,6.88
2018-11-05T22:03:21.134Z,6.85
2018-11-05T22:05:49.170Z,6.85
2018-11-05T22:08:17.108Z,6.87
2018-11-05T22:10:45.198Z,6.85
2018-11-05T22:13:13.409Z,6.77
2018-11-05T22:15:45.725Z,6.91
2018-11-05T22:18:14.636Z,7.30
2018-11-05T22:20:42.726Z,7.30
2018-11-05T22:23:10.762Z,7.25
2018-11-05T22:25:38.796Z,7.21
2018-11-05T22:28:07.050Z,7.23
2018-11-05T22:30:35.189Z,7.24
2018-11-05T22:33:03.409Z,7.21
2018-11-05T22:35:31.625Z,7.24
2018-11-05T22:37:59.813Z,7.32
2018-11-05T22:40:27.852Z,7.20
2018-11-05T22:42:55.861Z,7.08
2018-11-05T22:45:23.901Z,7.14
2018-11-05T22:47:51.950Z,7.18
2018-11-05T22:50:20.041Z,7.28
2018-11-05T22:52:48.141Z,7.25
2018-11-05T22:55:16.140Z,7.24
2018-11-05T22:57:44.132Z,7.28
2018-11-05T23:00:20.883Z,7.36
2018-11-05T23:02:54.393Z,7.36
2018-11-05T23:05:22.719Z,7.39
2018-11-05T23:07:51.704Z,7.23
2018-11-05T23:10:19.680Z,7.20
2018-11-05T23:12:47.742Z,7.22
2018-11-05T23:15:15.939Z,7.27
2018-11-05T23:17:44.066Z,7.22
2018-11-05T23:20:12.007Z,7.03
2018-11-05T23:22:40.720Z,7.04
2018-11-05T23:25:08.730Z,7.23
2018-11-05T23:27:36.843Z,7.41
2018-11-05T23:30:06.677Z,7.33
2018-11-05T23:32:34.678Z,7.34
2018-11-05T23:35:02.662Z,7.43
2018-11-05T23:37:30.882Z,7.47
2018-11-05T23:39:58.840Z,7.45
2018-11-05T23:42:26.880Z,7.48
2018-11-05T23:44:54.900Z,7.39
2018-11-05T23:47:27.060Z,7.24
2018-11-05T23:49:55.119Z,7.28
2018-11-05T23:52:23.525Z,7.49
2018-11-05T23:54:51.631Z,7.32
2018-11-05T23:57:19.636Z,7.31
2018-11-05T23:59:47.796Z,7.45
